Nearby METAR Reports

 

KBFI - Seattle/Boeing, Washington, USA
Distance from station: S 10mi, 16km
Updated: Sun, 20-Sep-2020 11:53am PDT
Overcast
Overcast
 Wind from varies
Wind: varies 3 mph , 6 km/h
Temperature: 64°F , 18°C
Dew Point: 54°F , 12°C
Humidity: 68%
Barometer: 30.10 inHg , 1019.3 hPa
Clouds: Overcast
Visibility: 10 miles , 16 km
Cloud details: Partly cloudy 900 ft
Mostly cloudy 2200 ft
Overcast 4200 ft
2020/09/20 18:53 KBFI 201853Z VRB03KT 10SM SCT009 BKN022 OVC042 18/12 A3010 RMK AO2 SLP193 T01830122
KRNT - Renton, Washington, USA
Distance from station: SSE 14mi, 23km
Updated: Sun, 20-Sep-2020 12:22pm PDT
Haze, Overcast
Haze, Overcast
 Wind from calm
Wind: Calm
Temperature: 63°F , 17°C
Dew Point: 55°F , 13°C
Humidity: 77%
Barometer: 30.10 inHg , 1019.3 hPa
Summary: Haze
Clouds: Overcast
Visibility: 5 miles , 8 km
Cloud details: Partly cloudy 2800 ft
Overcast 3900 ft
2020/09/20 19:22 KRNT 201922Z 00000KT 5SM HZ SCT028 OVC039 17/13 A3010 RMK AO2 T01720133
 
KPAE - Everett, Washington, USA
Distance from station: N 15mi, 25km
Updated: Sun, 20-Sep-2020 11:53am PDT
Overcast
Overcast
 Wind from SW
Wind: SW 3 mph , 6 km/h
Temperature: 61°F , 16°C
Dew Point: 57°F , 14°C
Humidity: 88%
Barometer: 30.12 inHg , 1020 hPa
Clouds: Overcast
Visibility: 10 miles , 16 km
Cloud details: Partly cloudy 600 ft
Mostly cloudy 2000 ft
Overcast 3000 ft
2020/09/20 18:53 KPAE 201853Z 23003KT 10SM SCT006 BKN020 OVC030 16/14 A3012 RMK AO2 SLP197 T01610139
KSEA - Seattle/Metro, Washington, USA
Distance from station: S 17mi, 27km
Updated: Sun, 20-Sep-2020 11:53am PDT
Overcast
Overcast
 Wind from calm
Wind: Calm
Temperature: 64°F , 18°C
Dew Point: 55°F , 13°C
Humidity: 73%
Barometer: 30.11 inHg , 1019.6 hPa
Clouds: Overcast
Visibility: 10 miles , 16 km
Cloud details: Partly cloudy 1100 ft
Overcast 2900 ft
2020/09/20 18:53 KSEA 201853Z 00000KT 10SM SCT011 OVC029 18/13 A3011 RMK AO2 SLP202 T01780133
 
KPWT - Bremerton Ntnl, Washington, USA
Distance from station: SW 24mi, 39km
Updated: Sun, 20-Sep-2020 12:32pm PDT
Overcast
Overcast
 Wind from calm
Wind: Calm
Temperature: 63°F , 17°C
Dew Point: 55°F , 13°C
Humidity: 77%
Barometer: 30.11 inHg , 1019.6 hPa
Clouds: Overcast
Visibility: 10 miles , 16 km
Cloud details: Partly cloudy 2700 ft
Overcast 3400 ft
2020/09/20 19:32 KPWT 201932Z AUTO 00000KT 10SM SCT027 OVC034 17/13 A3011 RMK AO2
KTIW - Tacoma, Washington, USA
Distance from station: SSW 32mi, 52km
Updated: Sun, 20-Sep-2020 11:53am PDT
Mostly cloudy
Mostly cloudy
 Wind from varies
Wind: varies 3 mph , 6 km/h
Temperature: 63°F , 17°C
Dew Point: 55°F , 13°C
Humidity: 77%
Barometer: 30.11 inHg , 1019.6 hPa
Clouds: Mostly cloudy
Visibility: 10 miles , 16 km
Cloud details: Partly cloudy 600 ft
Partly cloudy 1200 ft
Mostly cloudy 1900 ft
2020/09/20 18:53 KTIW 201853Z VRB03KT 10SM SCT006 SCT012 BKN019 17/13 A3011 RMK AO2 SLP196 T01670133
 
KAWO - Arlington Muni, Washington, USA
Distance from station: N 33mi, 54km
Updated: Sun, 20-Sep-2020 11:56am PDT
Mostly cloudy
Mostly cloudy
 Wind from calm
Wind: Calm
Temperature: 66°F , 19°C
Dew Point: 57°F , 14°C
Humidity: 73%
Barometer: 30.10 inHg , 1019.3 hPa
Clouds: Mostly cloudy
Visibility: 10 miles , 16 km
Cloud details: Few Clouds 1700 ft
Mostly cloudy 5500 ft
2020/09/20 18:56 KAWO 201856Z AUTO 00000KT 10SM FEW017 BKN055 19/14 A3010 RMK AO2 SLP198 P0001 T01890139
KTCM - Tacoma/Mc Chord, Washington, USA
Distance from station: S 41mi, 65km
Updated: Sun, 20-Sep-2020 11:58am PDT
Overcast
Overcast
 Wind from calm
Wind: Calm
Temperature: 63°F , 17°C
Dew Point: 55°F , 13°C
Humidity: 77%
Barometer: 30.11 inHg , 1019.6 hPa
Clouds: Overcast
Visibility: 10 miles , 16 km
Cloud details: Partly cloudy 2500 ft
Overcast 3600 ft
2020/09/20 18:58 KTCM 201858Z AUTO 00000KT 10SM SCT025 OVC036 17/13 A3011 RMK AO2 SLP200 T01710130 $
 
KPLU - Puyallup/Thun, Washington, USA
Distance from station: S 41mi, 66km
Updated: Sun, 20-Sep-2020 12:35pm PDT
Overcast
Overcast
 Wind from varies
Wind: varies 3 mph , 6 km/h
Temperature: 64°F , 18°C
Dew Point: 59°F , 15°C
Humidity: 83%
Barometer: 30.11 inHg , 1019.6 hPa
Clouds: Overcast
Visibility: 10 miles , 16 km
Cloud details: Partly cloudy 1700 ft
Partly cloudy 2400 ft
Overcast 3700 ft
2020/09/20 19:35 KPLU 201935Z AUTO VRB03KT 10SM SCT017 SCT024 OVC037 18/15 A3011 RMK AO2
KGRF - Fort Lewis/Gray, Washington, USA
Distance from station: SSW 45mi, 72km
Updated: Sun, 20-Sep-2020 11:58am PDT
Mostly cloudy
Mostly cloudy
 Wind from NW
Wind: NW 5 mph , 7 km/h
Temperature: 64°F , 18°C
Dew Point: 64°F , 18°C
Humidity: 100%
Barometer: 30.10 inHg , 1019.3 hPa
Clouds: Mostly cloudy
Visibility: 10 miles , 16 km
Cloud details: Partly cloudy 1400 ft
Mostly cloudy 3800 ft
2020/09/20 18:58 KGRF 201858Z AUTO 32004KT 10SM SCT014 BKN038 18/18 A3010 RMK AO2 SLP196 T01750175 $
 
KNUW - Whidbey Is. Nas, Washington, USA
Distance from station: NNW 48mi, 77km
Updated: Sun, 20-Sep-2020 11:56am PDT
Mostly cloudy
Mostly cloudy
 Wind from S
Wind: S 6 mph , 9 km/h
Temperature: 66°F , 19°C
Dew Point: 55°F , 13°C
Humidity: 68%
Barometer: 30.13 inHg , 1020.3 hPa
Clouds: Mostly cloudy
Visibility: 10 miles , 16 km
Cloud details: Partly cloudy 1900 ft
Partly cloudy 3000 ft
Mostly cloudy 5000 ft
2020/09/20 18:56 KNUW 201856Z 17005KT 10SM SCT019 SCT030 BKN050 19/13 A3013 RMK AO2 SLP203 T01940133
KSHN - Shelton, Washington, USA
Distance from station: SW 50mi, 80km
Updated: Sun, 20-Sep-2020 12:20pm PDT
Overcast
Overcast
 Wind from calm
Wind: Calm
Temperature: 64°F , 18°C
Dew Point: 54°F , 12°C
Humidity: 68%
Barometer: 30.07 inHg , 1018.3 hPa
Clouds: Overcast
Visibility: 10 miles , 16 km
Cloud details: Overcast 3000 ft
2020/09/20 19:20 KSHN 201920Z AUTO 00000KT 10SM OVC030 18/12 A3007 RMK AO2 T01780122